sensor_id;sensor_type;location;lat;lon;timestamp;P1;durP1;ratioP1;P2;durP2;ratioP2
7529;SDS011;3806;52.270;10.544;2023-04-15T00:00:07;2.95;;;2.40;;
7529;SDS011;3806;52.270;10.544;2023-04-15T00:02:34;4.13;;;2.80;;
7529;SDS011;3806;52.270;10.544;2023-04-15T00:05:00;5.25;;;3.47;;
7529;SDS011;3806;52.270;10.544;2023-04-15T00:07:25;4.13;;;2.88;;
7529;SDS011;3806;52.270;10.544;2023-04-15T00:09:50;4.60;;;2.88;;
7529;SDS011;3806;52.270;10.544;2023-04-15T00:12:19;4.65;;;2.78;;
7529;SDS011;3806;52.270;10.544;2023-04-15T00:14:45;6.57;;;2.80;;
7529;SDS011;3806;52.270;10.544;2023-04-15T00:17:11;4.22;;;2.72;;
7529;SDS011;3806;52.270;10.544;2023-04-15T00:19:37;3.78;;;2.78;;
7529;SDS011;3806;52.270;10.544;2023-04-15T00:22:02;5.13;;;3.17;;
7529;SDS011;3806;52.270;10.544;2023-04-15T00:24:28;4.13;;;2.97;;
7529;SDS011;3806;52.270;10.544;2023-04-15T00:26:55;4.13;;;2.75;;
7529;SDS011;3806;52.270;10.544;2023-04-15T00:29:21;6.90;;;3.08;;
7529;SDS011;3806;52.270;10.544;2023-04-15T00:31:46;4.55;;;2.90;;
7529;SDS011;3806;52.270;10.544;2023-04-15T00:34:12;4.60;;;3.28;;
7529;SDS011;3806;52.270;10.544;2023-04-15T00:36:37;5.10;;;3.33;;
7529;SDS011;3806;52.270;10.544;2023-04-15T00:39:03;5.15;;;3.30;;
7529;SDS011;3806;52.270;10.544;2023-04-15T00:41:29;4.60;;;2.85;;
7529;SDS011;3806;52.270;10.544;2023-04-15T00:43:55;6.13;;;3.38;;
7529;SDS011;3806;52.270;10.544;2023-04-15T00:46:21;7.30;;;3.65;;
7529;SDS011;3806;52.270;10.544;2023-04-15T00:48:46;6.70;;;3.58;;
7529;SDS011;3806;52.270;10.544;2023-04-15T00:51:12;7.38;;;3.47;;
7529;SDS011;3806;52.270;10.544;2023-04-15T00:53:39;6.45;;;3.78;;
7529;SDS011;3806;52.270;10.544;2023-04-15T00:56:05;7.35;;;3.42;;
7529;SDS011;3806;52.270;10.544;2023-04-15T00:58:31;7.28;;;3.83;;
7529;SDS011;3806;52.270;10.544;2023-04-15T01:00:56;5.35;;;3.60;;
7529;SDS011;3806;52.270;10.544;2023-04-15T01:03:22;6.57;;;3.38;;
7529;SDS011;3806;52.270;10.544;2023-04-15T01:05:48;7.50;;;4.25;;
7529;SDS011;3806;52.270;10.544;2023-04-15T01:08:14;7.03;;;4.68;;
7529;SDS011;3806;52.270;10.544;2023-04-15T01:10:39;6.82;;;3.78;;
7529;SDS011;3806;52.270;10.544;2023-04-15T01:13:06;7.97;;;4.43;;
7529;SDS011;3806;52.270;10.544;2023-04-15T01:15:31;6.75;;;4.05;;
7529;SDS011;3806;52.270;10.544;2023-04-15T01:17:57;7.10;;;3.95;;
7529;SDS011;3806;52.270;10.544;2023-04-15T01:20:23;6.90;;;4.15;;
7529;SDS011;3806;52.270;10.544;2023-04-15T01:22:49;7.25;;;4.00;;
7529;SDS011;3806;52.270;10.544;2023-04-15T01:25:17;5.65;;;4.15;;
7529;SDS011;3806;52.270;10.544;2023-04-15T01:27:43;6.65;;;3.72;;
7529;SDS011;3806;52.270;10.544;2023-04-15T01:30:09;6.55;;;4.18;;
7529;SDS011;3806;52.270;10.544;2023-04-15T01:32:35;7.80;;;4.53;;
7529;SDS011;3806;52.270;10.544;2023-04-15T01:35:01;8.32;;;4.40;;
7529;SDS011;3806;52.270;10.544;2023-04-15T01:37:27;7.50;;;4.75;;
7529;SDS011;3806;52.270;10.544;2023-04-15T01:39:53;7.95;;;5.05;;
7529;SDS011;3806;52.270;10.544;2023-04-15T01:42:20;9.45;;;4.97;;
7529;SDS011;3806;52.270;10.544;2023-04-15T01:44:46;8.52;;;4.53;;
7529;SDS011;3806;52.270;10.544;2023-04-15T01:47:11;6.90;;;4.50;;
7529;SDS011;3806;52.270;10.544;2023-04-15T01:49:37;6.88;;;4.78;;
7529;SDS011;3806;52.270;10.544;2023-04-15T01:52:02;9.93;;;5.10;;
7529;SDS011;3806;52.270;10.544;2023-04-15T01:54:28;9.45;;;4.25;;
7529;SDS011;3806;52.270;10.544;2023-04-15T01:56:53;8.18;;;4.50;;
7529;SDS011;3806;52.270;10.544;2023-04-15T01:59:20;8.50;;;4.45;;
7529;SDS011;3806;52.270;10.544;2023-04-15T02:01:46;7.15;;;4.40;;
7529;SDS011;3806;52.270;10.544;2023-04-15T02:04:12;6.65;;;4.07;;
7529;SDS011;3806;52.270;10.544;2023-04-15T02:06:41;9.20;;;5.15;;
7529;SDS011;3806;52.270;10.544;2023-04-15T02:09:07;7.68;;;4.13;;
7529;SDS011;3806;52.270;10.544;2023-04-15T02:11:33;7.75;;;4.70;;
7529;SDS011;3806;52.270;10.544;2023-04-15T02:14:01;8.90;;;5.38;;
7529;SDS011;3806;52.270;10.544;2023-04-15T02:16:26;8.07;;;4.80;;
7529;SDS011;3806;52.270;10.544;2023-04-15T02:18:52;9.20;;;4.88;;
7529;SDS011;3806;52.270;10.544;2023-04-15T02:21:17;7.25;;;4.85;;
7529;SDS011;3806;52.270;10.544;2023-04-15T02:23:43;9.55;;;5.07;;
7529;SDS011;3806;52.270;10.544;2023-04-15T02:26:10;7.45;;;4.95;;
7529;SDS011;3806;52.270;10.544;2023-04-15T02:28:36;6.45;;;4.40;;
7529;SDS011;3806;52.270;10.544;2023-04-15T02:31:05;8.55;;;5.07;;
7529;SDS011;3806;52.270;10.544;2023-04-15T02:33:32;7.55;;;4.35;;
7529;SDS011;3806;52.270;10.544;2023-04-15T02:35:57;9.60;;;5.50;;
7529;SDS011;3806;52.270;10.544;2023-04-15T02:38:23;9.30;;;4.72;;
7529;SDS011;3806;52.270;10.544;2023-04-15T02:40:49;8.05;;;5.43;;
7529;SDS011;3806;52.270;10.544;2023-04-15T02:43:15;9.40;;;5.35;;
7529;SDS011;3806;52.270;10.544;2023-04-15T02:45:41;9.70;;;5.18;;
7529;SDS011;3806;52.270;10.544;2023-04-15T02:48:07;9.18;;;5.25;;
7529;SDS011;3806;52.270;10.544;2023-04-15T02:50:33;9.63;;;4.90;;
7529;SDS011;3806;52.270;10.544;2023-04-15T02:52:59;7.45;;;5.10;;
7529;SDS011;3806;52.270;10.544;2023-04-15T02:55:26;10.35;;;4.75;;
7529;SDS011;3806;52.270;10.544;2023-04-15T02:57:52;9.25;;;5.15;;
7529;SDS011;3806;52.270;10.544;2023-04-15T03:00:17;8.48;;;5.70;;
7529;SDS011;3806;52.270;10.544;2023-04-15T03:02:45;10.60;;;5.63;;
7529;SDS011;3806;52.270;10.544;2023-04-15T03:05:11;10.82;;;5.63;;
7529;SDS011;3806;52.270;10.544;2023-04-15T03:07:38;9.07;;;5.22;;
7529;SDS011;3806;52.270;10.544;2023-04-15T03:10:06;9.52;;;4.93;;
7529;SDS011;3806;52.270;10.544;2023-04-15T03:12:32;9.43;;;5.47;;
7529;SDS011;3806;52.270;10.544;2023-04-15T03:14:58;11.70;;;6.43;;
7529;SDS011;3806;52.270;10.544;2023-04-15T03:17:25;8.55;;;5.70;;
7529;SDS011;3806;52.270;10.544;2023-04-15T03:19:51;10.80;;;5.90;;
7529;SDS011;3806;52.270;10.544;2023-04-15T03:22:16;11.13;;;5.38;;
7529;SDS011;3806;52.270;10.544;2023-04-15T03:24:42;11.02;;;6.35;;
7529;SDS011;3806;52.270;10.544;2023-04-15T03:27:07;14.25;;;6.13;;
7529;SDS011;3806;52.270;10.544;2023-04-15T03:29:33;12.30;;;6.88;;
7529;SDS011;3806;52.270;10.544;2023-04-15T03:31:59;15.18;;;7.97;;
7529;SDS011;3806;52.270;10.544;2023-04-15T03:34:24;11.13;;;6.47;;
7529;SDS011;3806;52.270;10.544;2023-04-15T03:36:50;11.82;;;6.30;;
7529;SDS011;3806;52.270;10.544;2023-04-15T03:39:15;12.25;;;6.55;;
7529;SDS011;3806;52.270;10.544;2023-04-15T03:41:41;10.55;;;6.13;;
7529;SDS011;3806;52.270;10.544;2023-04-15T03:44:06;15.23;;;7.35;;
7529;SDS011;3806;52.270;10.544;2023-04-15T03:46:32;13.18;;;6.20;;
7529;SDS011;3806;52.270;10.544;2023-04-15T03:48:57;11.85;;;6.45;;
7529;SDS011;3806;52.270;10.544;2023-04-15T03:51:23;14.10;;;7.05;;
7529;SDS011;3806;52.270;10.544;2023-04-15T03:53:49;13.98;;;6.63;;
7529;SDS011;3806;52.270;10.544;2023-04-15T03:56:15;12.43;;;7.00;;
7529;SDS011;3806;52.270;10.544;2023-04-15T03:58:41;11.82;;;7.20;;
7529;SDS011;3806;52.270;10.544;2023-04-15T04:01:07;12.07;;;7.38;;
7529;SDS011;3806;52.270;10.544;2023-04-15T04:03:33;11.32;;;6.07;;
7529;SDS011;3806;52.270;10.544;2023-04-15T04:05:59;13.18;;;7.20;;
7529;SDS011;3806;52.270;10.544;2023-04-15T04:08:25;13.10;;;6.38;;
7529;SDS011;3806;52.270;10.544;2023-04-15T04:10:52;12.23;;;6.47;;
7529;SDS011;3806;52.270;10.544;2023-04-15T04:13:17;11.57;;;6.63;;
7529;SDS011;3806;52.270;10.544;2023-04-15T04:15:43;11.30;;;6.15;;
7529;SDS011;3806;52.270;10.544;2023-04-15T04:18:09;10.27;;;6.22;;
7529;SDS011;3806;52.270;10.544;2023-04-15T04:20:35;12.60;;;6.60;;
7529;SDS011;3806;52.270;10.544;2023-04-15T04:23:01;11.80;;;6.53;;
7529;SDS011;3806;52.270;10.544;2023-04-15T04:25:26;10.43;;;5.68;;
7529;SDS011;3806;52.270;10.544;2023-04-15T04:27:52;10.45;;;6.10;;
7529;SDS011;3806;52.270;10.544;2023-04-15T04:30:17;12.10;;;6.78;;
7529;SDS011;3806;52.270;10.544;2023-04-15T04:32:43;10.68;;;6.05;;
7529;SDS011;3806;52.270;10.544;2023-04-15T04:35:08;11.70;;;6.28;;
7529;SDS011;3806;52.270;10.544;2023-04-15T04:37:34;12.98;;;6.35;;
7529;SDS011;3806;52.270;10.544;2023-04-15T04:40:00;12.23;;;6.93;;
7529;SDS011;3806;52.270;10.544;2023-04-15T04:42:25;9.60;;;6.15;;
7529;SDS011;3806;52.270;10.544;2023-04-15T04:44:51;11.57;;;6.60;;
7529;SDS011;3806;52.270;10.544;2023-04-15T04:47:16;10.18;;;5.75;;
7529;SDS011;3806;52.270;10.544;2023-04-15T04:49:42;13.95;;;6.53;;
7529;SDS011;3806;52.270;10.544;2023-04-15T04:52:07;13.98;;;6.80;;
7529;SDS011;3806;52.270;10.544;2023-04-15T04:54:33;12.23;;;6.00;;
7529;SDS011;3806;52.270;10.544;2023-04-15T04:56:59;10.15;;;6.93;;
7529;SDS011;3806;52.270;10.544;2023-04-15T04:59:25;10.18;;;5.78;;
7529;SDS011;3806;52.270;10.544;2023-04-15T05:01:51;10.38;;;5.65;;
7529;SDS011;3806;52.270;10.544;2023-04-15T05:04:17;9.13;;;5.80;;
7529;SDS011;3806;52.270;10.544;2023-04-15T05:06:42;10.32;;;6.22;;
7529;SDS011;3806;52.270;10.544;2023-04-15T05:09:07;8.48;;;4.97;;
7529;SDS011;3806;52.270;10.544;2023-04-15T05:11:33;8.98;;;5.20;;
7529;SDS011;3806;52.270;10.544;2023-04-15T05:14:02;10.05;;;5.32;;
7529;SDS011;3806;52.270;10.544;2023-04-15T05:16:27;11.43;;;6.18;;
7529;SDS011;3806;52.270;10.544;2023-04-15T05:18:53;9.13;;;5.25;;
7529;SDS011;3806;52.270;10.544;2023-04-15T05:21:19;9.73;;;5.75;;
7529;SDS011;3806;52.270;10.544;2023-04-15T05:23:44;7.97;;;5.25;;
7529;SDS011;3806;52.270;10.544;2023-04-15T05:26:10;11.32;;;5.85;;
7529;SDS011;3806;52.270;10.544;2023-04-15T05:28:35;9.18;;;5.25;;
7529;SDS011;3806;52.270;10.544;2023-04-15T05:31:01;9.30;;;5.20;;
7529;SDS011;3806;52.270;10.544;2023-04-15T05:33:26;11.38;;;6.47;;
7529;SDS011;3806;52.270;10.544;2023-04-15T05:35:52;10.15;;;6.03;;
7529;SDS011;3806;52.270;10.544;2023-04-15T05:38:18;11.20;;;6.30;;
7529;SDS011;3806;52.270;10.544;2023-04-15T05:40:43;10.75;;;6.65;;
7529;SDS011;3806;52.270;10.544;2023-04-15T05:43:09;10.77;;;6.15;;
7529;SDS011;3806;52.270;10.544;2023-04-15T05:45:34;11.50;;;5.20;;
7529;SDS011;3806;52.270;10.544;2023-04-15T05:48:00;9.65;;;5.28;;
7529;SDS011;3806;52.270;10.544;2023-04-15T05:50:25;9.20;;;6.00;;
7529;SDS011;3806;52.270;10.544;2023-04-15T05:52:51;8.18;;;4.90;;
7529;SDS011;3806;52.270;10.544;2023-04-15T05:55:16;10.40;;;5.40;;
7529;SDS011;3806;52.270;10.544;2023-04-15T05:57:42;7.32;;;4.68;;
7529;SDS011;3806;52.270;10.544;2023-04-15T06:00:07;8.88;;;4.93;;
7529;SDS011;3806;52.270;10.544;2023-04-15T06:02:34;8.25;;;4.78;;
7529;SDS011;3806;52.270;10.544;2023-04-15T06:05:00;6.47;;;4.25;;
7529;SDS011;3806;52.270;10.544;2023-04-15T06:07:25;9.27;;;5.22;;
7529;SDS011;3806;52.270;10.544;2023-04-15T06:09:51;8.75;;;4.65;;
7529;SDS011;3806;52.270;10.544;2023-04-15T06:12:16;10.13;;;4.75;;
7529;SDS011;3806;52.270;10.544;2023-04-15T06:14:42;6.35;;;4.25;;
7529;SDS011;3806;52.270;10.544;2023-04-15T06:17:08;8.68;;;4.65;;
7529;SDS011;3806;52.270;10.544;2023-04-15T06:19:34;11.30;;;5.15;;
7529;SDS011;3806;52.270;10.544;2023-04-15T06:22:00;9.25;;;5.05;;
7529;SDS011;3806;52.270;10.544;2023-04-15T06:24:27;8.02;;;5.00;;
7529;SDS011;3806;52.270;10.544;2023-04-15T06:26:53;7.00;;;4.20;;
7529;SDS011;3806;52.270;10.544;2023-04-15T06:29:18;8.52;;;5.35;;
7529;SDS011;3806;52.270;10.544;2023-04-15T06:31:44;7.93;;;4.82;;
7529;SDS011;3806;52.270;10.544;2023-04-15T06:34:12;7.70;;;4.63;;
7529;SDS011;3806;52.270;10.544;2023-04-15T06:36:37;8.77;;;4.63;;
7529;SDS011;3806;52.270;10.544;2023-04-15T06:39:03;7.95;;;4.72;;
7529;SDS011;3806;52.270;10.544;2023-04-15T06:41:28;7.55;;;4.45;;
7529;SDS011;3806;52.270;10.544;2023-04-15T06:43:55;7.30;;;4.32;;
7529;SDS011;3806;52.270;10.544;2023-04-15T06:46:20;7.93;;;4.65;;
7529;SDS011;3806;52.270;10.544;2023-04-15T06:48:46;11.48;;;5.60;;
7529;SDS011;3806;52.270;10.544;2023-04-15T06:51:12;7.63;;;3.97;;
7529;SDS011;3806;52.270;10.544;2023-04-15T06:53:37;6.38;;;4.10;;
7529;SDS011;3806;52.270;10.544;2023-04-15T06:56:05;6.22;;;3.55;;
7529;SDS011;3806;52.270;10.544;2023-04-15T06:58:32;8.57;;;4.70;;
7529;SDS011;3806;52.270;10.544;2023-04-15T07:00:57;6.35;;;4.47;;
7529;SDS011;3806;52.270;10.544;2023-04-15T07:03:23;8.55;;;4.40;;
7529;SDS011;3806;52.270;10.544;2023-04-15T07:05:48;8.85;;;4.45;;
7529;SDS011;3806;52.270;10.544;2023-04-15T07:08:14;6.10;;;3.67;;
7529;SDS011;3806;52.270;10.544;2023-04-15T07:10:40;6.65;;;3.92;;
7529;SDS011;3806;52.270;10.544;2023-04-15T07:13:05;8.02;;;4.30;;
7529;SDS011;3806;52.270;10.544;2023-04-15T07:15:32;6.90;;;3.95;;
7529;SDS011;3806;52.270;10.544;2023-04-15T07:17:58;7.35;;;4.20;;
7529;SDS011;3806;52.270;10.544;2023-04-15T07:20:24;5.13;;;3.33;;
7529;SDS011;3806;52.270;10.544;2023-04-15T07:22:51;6.00;;;3.80;;
7529;SDS011;3806;52.270;10.544;2023-04-15T07:25:17;6.10;;;3.90;;
7529;SDS011;3806;52.270;10.544;2023-04-15T07:27:43;7.30;;;4.45;;
7529;SDS011;3806;52.270;10.544;2023-04-15T07:30:09;5.80;;;3.63;;
7529;SDS011;3806;52.270;10.544;2023-04-15T07:32:35;4.85;;;3.20;;
7529;SDS011;3806;52.270;10.544;2023-04-15T07:35:01;4.97;;;3.08;;
7529;SDS011;3806;52.270;10.544;2023-04-15T07:37:28;6.32;;;4.03;;
7529;SDS011;3806;52.270;10.544;2023-04-15T07:39:54;6.40;;;3.72;;
7529;SDS011;3806;52.270;10.544;2023-04-15T07:42:20;4.85;;;3.08;;
7529;SDS011;3806;52.270;10.544;2023-04-15T07:44:46;6.00;;;3.53;;
7529;SDS011;3806;52.270;10.544;2023-04-15T07:47:11;4.20;;;2.88;;
7529;SDS011;3806;52.270;10.544;2023-04-15T07:49:37;5.32;;;3.58;;
7529;SDS011;3806;52.270;10.544;2023-04-15T07:52:03;3.50;;;2.80;;
7529;SDS011;3806;52.270;10.544;2023-04-15T07:54:29;4.45;;;3.22;;
7529;SDS011;3806;52.270;10.544;2023-04-15T07:56:55;4.28;;;3.45;;
7529;SDS011;3806;52.270;10.544;2023-04-15T07:59:21;3.63;;;2.63;;
7529;SDS011;3806;52.270;10.544;2023-04-15T08:01:47;4.95;;;3.45;;
7529;SDS011;3806;52.270;10.544;2023-04-15T08:04:12;4.93;;;3.20;;
7529;SDS011;3806;52.270;10.544;2023-04-15T08:06:38;4.90;;;2.80;;
7529;SDS011;3806;52.270;10.544;2023-04-15T08:09:04;3.25;;;2.17;;
7529;SDS011;3806;52.270;10.544;2023-04-15T08:11:31;6.00;;;3.53;;
7529;SDS011;3806;52.270;10.544;2023-04-15T08:13:56;3.83;;;2.42;;
7529;SDS011;3806;52.270;10.544;2023-04-15T08:16:23;4.28;;;2.75;;
7529;SDS011;3806;52.270;10.544;2023-04-15T08:18:49;7.38;;;2.60;;
7529;SDS011;3806;52.270;10.544;2023-04-15T08:21:17;4.57;;;2.80;;
7529;SDS011;3806;52.270;10.544;2023-04-15T08:23:44;5.32;;;2.90;;
7529;SDS011;3806;52.270;10.544;2023-04-15T08:26:11;4.22;;;2.92;;
7529;SDS011;3806;52.270;10.544;2023-04-15T08:28:38;5.40;;;2.83;;
7529;SDS011;3806;52.270;10.544;2023-04-15T08:31:05;4.22;;;2.63;;
7529;SDS011;3806;52.270;10.544;2023-04-15T08:33:31;3.90;;;2.92;;
7529;SDS011;3806;52.270;10.544;2023-04-15T08:35:56;4.82;;;2.92;;
7529;SDS011;3806;52.270;10.544;2023-04-15T08:41:17;6.07;;;3.88;;
7529;SDS011;3806;52.270;10.544;2023-04-15T08:44:07;7.95;;;4.47;;
7529;SDS011;3806;52.270;10.544;2023-04-15T08:46:33;5.03;;;3.20;;
7529;SDS011;3806;52.270;10.544;2023-04-15T08:48:59;6.18;;;3.15;;
7529;SDS011;3806;52.270;10.544;2023-04-15T08:51:27;6.07;;;3.60;;
7529;SDS011;3806;52.270;10.544;2023-04-15T08:53:53;6.45;;;3.90;;
7529;SDS011;3806;52.270;10.544;2023-04-15T08:56:19;5.90;;;4.00;;
7529;SDS011;3806;52.270;10.544;2023-04-15T08:58:50;9.43;;;4.40;;
7529;SDS011;3806;52.270;10.544;2023-04-15T09:01:16;9.40;;;6.03;;
7529;SDS011;3806;52.270;10.544;2023-04-15T09:03:42;6.53;;;4.25;;
7529;SDS011;3806;52.270;10.544;2023-04-15T09:06:08;7.05;;;4.30;;
7529;SDS011;3806;52.270;10.544;2023-04-15T09:08:36;7.00;;;4.07;;
7529;SDS011;3806;52.270;10.544;2023-04-15T09:11:02;8.63;;;5.28;;
7529;SDS011;3806;52.270;10.544;2023-04-15T09:13:28;9.48;;;5.53;;
7529;SDS011;3806;52.270;10.544;2023-04-15T09:15:54;9.45;;;4.93;;
7529;SDS011;3806;52.270;10.544;2023-04-15T09:18:28;9.88;;;5.75;;
7529;SDS011;3806;52.270;10.544;2023-04-15T09:20:55;9.02;;;6.10;;
7529;SDS011;3806;52.270;10.544;2023-04-15T09:23:40;12.27;;;6.45;;
7529;SDS011;3806;52.270;10.544;2023-04-15T09:26:18;11.70;;;7.25;;
7529;SDS011;3806;52.270;10.544;2023-04-15T09:28:44;15.65;;;7.95;;
7529;SDS011;3806;52.270;10.544;2023-04-15T09:31:10;14.73;;;8.48;;
7529;SDS011;3806;52.270;10.544;2023-04-15T09:33:36;13.95;;;7.70;;
7529;SDS011;3806;52.270;10.544;2023-04-15T09:36:20;15.95;;;7.95;;
7529;SDS011;3806;52.270;10.544;2023-04-15T09:38:58;15.18;;;8.38;;
7529;SDS011;3806;52.270;10.544;2023-04-15T09:41:24;12.93;;;7.60;;
7529;SDS011;3806;52.270;10.544;2023-04-15T09:43:50;18.42;;;8.88;;
7529;SDS011;3806;52.270;10.544;2023-04-15T09:46:16;16.20;;;8.70;;
7529;SDS011;3806;52.270;10.544;2023-04-15T09:48:42;17.50;;;8.98;;
7529;SDS011;3806;52.270;10.544;2023-04-15T09:51:08;18.83;;;9.63;;
7529;SDS011;3806;52.270;10.544;2023-04-15T09:53:35;16.70;;;9.57;;
7529;SDS011;3806;52.270;10.544;2023-04-15T09:56:00;18.77;;;9.75;;
7529;SDS011;3806;52.270;10.544;2023-04-15T09:58:28;17.35;;;9.48;;
7529;SDS011;3806;52.270;10.544;2023-04-15T10:00:56;14.20;;;8.65;;
7529;SDS011;3806;52.270;10.544;2023-04-15T10:03:25;17.52;;;9.13;;
7529;SDS011;3806;52.270;10.544;2023-04-15T10:05:53;20.42;;;9.80;;
7529;SDS011;3806;52.270;10.544;2023-04-15T10:08:21;18.77;;;10.35;;
7529;SDS011;3806;52.270;10.544;2023-04-15T10:10:48;19.70;;;10.82;;
7529;SDS011;3806;52.270;10.544;2023-04-15T10:13:16;21.05;;;10.02;;
7529;SDS011;3806;52.270;10.544;2023-04-15T10:15:49;19.70;;;9.90;;
7529;SDS011;3806;52.270;10.544;2023-04-15T10:18:22;23.13;;;10.98;;
7529;SDS011;3806;52.270;10.544;2023-04-15T10:20:50;19.38;;;9.88;;
7529;SDS011;3806;52.270;10.544;2023-04-15T10:23:17;18.75;;;10.05;;
7529;SDS011;3806;52.270;10.544;2023-04-15T10:25:45;19.92;;;10.40;;
7529;SDS011;3806;52.270;10.544;2023-04-15T10:28:11;19.92;;;9.82;;
7529;SDS011;3806;52.270;10.544;2023-04-15T10:30:39;17.85;;;10.18;;
7529;SDS011;3806;52.270;10.544;2023-04-15T10:33:05;19.42;;;11.13;;
7529;SDS011;3806;52.270;10.544;2023-04-15T10:35:33;23.67;;;10.68;;
7529;SDS011;3806;52.270;10.544;2023-04-15T10:37:59;16.63;;;10.43;;
7529;SDS011;3806;52.270;10.544;2023-04-15T10:40:30;21.35;;;11.38;;
7529;SDS011;3806;52.270;10.544;2023-04-15T10:43:00;19.52;;;10.38;;
7529;SDS011;3806;52.270;10.544;2023-04-15T10:45:27;22.85;;;11.30;;
7529;SDS011;3806;52.270;10.544;2023-04-15T10:47:57;18.38;;;9.90;;
7529;SDS011;3806;52.270;10.544;2023-04-15T10:50:25;17.52;;;10.95;;
7529;SDS011;3806;52.270;10.544;2023-04-15T10:52:52;21.48;;;10.85;;
7529;SDS011;3806;52.270;10.544;2023-04-15T10:55:19;18.42;;;10.65;;
7529;SDS011;3806;52.270;10.544;2023-04-15T10:57:48;21.55;;;10.50;;
7529;SDS011;3806;52.270;10.544;2023-04-15T11:00:20;19.58;;;10.80;;
7529;SDS011;3806;52.270;10.544;2023-04-15T11:03:06;20.98;;;11.30;;
7529;SDS011;3806;52.270;10.544;2023-04-15T11:08:06;20.88;;;11.27;;
7529;SDS011;3806;52.270;10.544;2023-04-15T11:13:14;23.48;;;11.75;;
7529;SDS011;3806;52.270;10.544;2023-04-15T11:15:45;22.40;;;11.30;;
7529;SDS011;3806;52.270;10.544;2023-04-15T11:18:12;17.92;;;10.85;;
7529;SDS011;3806;52.270;10.544;2023-04-15T11:20:41;23.33;;;10.27;;
7529;SDS011;3806;52.270;10.544;2023-04-15T11:23:09;26.52;;;11.75;;
7529;SDS011;3806;52.270;10.544;2023-04-15T11:25:35;23.95;;;12.00;;
7529;SDS011;3806;52.270;10.544;2023-04-15T11:28:03;23.40;;;10.45;;
7529;SDS011;3806;52.270;10.544;2023-04-15T11:30:30;24.67;;;13.13;;
7529;SDS011;3806;52.270;10.544;2023-04-15T11:33:01;23.15;;;12.68;;
7529;SDS011;3806;52.270;10.544;2023-04-15T11:35:31;23.27;;;12.32;;
7529;SDS011;3806;52.270;10.544;2023-04-15T11:37:57;24.25;;;12.57;;
7529;SDS011;3806;52.270;10.544;2023-04-15T11:40:27;23.85;;;12.07;;
7529;SDS011;3806;52.270;10.544;2023-04-15T11:43:05;24.77;;;12.82;;
7529;SDS011;3806;52.270;10.544;2023-04-15T11:45:31;26.05;;;13.20;;
7529;SDS011;3806;52.270;10.544;2023-04-15T11:50:32;23.63;;;12.75;;
7529;SDS011;3806;52.270;10.544;2023-04-15T11:52:58;25.45;;;13.23;;
7529;SDS011;3806;52.270;10.544;2023-04-15T11:55:25;21.20;;;12.13;;
7529;SDS011;3806;52.270;10.544;2023-04-15T11:58:10;25.35;;;13.27;;
7529;SDS011;3806;52.270;10.544;2023-04-15T12:00:52;26.83;;;13.35;;
7529;SDS011;3806;52.270;10.544;2023-04-15T12:03:26;30.17;;;14.85;;
7529;SDS011;3806;52.270;10.544;2023-04-15T12:06:12;31.15;;;15.00;;
7529;SDS011;3806;52.270;10.544;2023-04-15T12:13:52;29.17;;;13.18;;
7529;SDS011;3806;52.270;10.544;2023-04-15T12:16:22;25.67;;;13.98;;
7529;SDS011;3806;52.270;10.544;2023-04-15T12:18:52;26.60;;;13.65;;
7529;SDS011;3806;52.270;10.544;2023-04-15T12:21:23;27.08;;;13.20;;
7529;SDS011;3806;52.270;10.544;2023-04-15T12:23:51;31.30;;;13.75;;
7529;SDS011;3806;52.270;10.544;2023-04-15T12:26:17;27.75;;;13.93;;
7529;SDS011;3806;52.270;10.544;2023-04-15T12:28:54;30.05;;;14.13;;
7529;SDS011;3806;52.270;10.544;2023-04-15T12:31:20;27.42;;;13.85;;
7529;SDS011;3806;52.270;10.544;2023-04-15T12:33:47;31.10;;;15.05;;
7529;SDS011;3806;52.270;10.544;2023-04-15T12:36:13;29.13;;;13.80;;
7529;SDS011;3806;52.270;10.544;2023-04-15T12:38:39;26.83;;;13.25;;
7529;SDS011;3806;52.270;10.544;2023-04-15T12:41:05;29.05;;;14.73;;
7529;SDS011;3806;52.270;10.544;2023-04-15T12:43:30;28.13;;;14.25;;
7529;SDS011;3806;52.270;10.544;2023-04-15T12:45:56;30.10;;;14.48;;
7529;SDS011;3806;52.270;10.544;2023-04-15T12:48:22;28.98;;;15.02;;
7529;SDS011;3806;52.270;10.544;2023-04-15T12:50:47;28.65;;;14.65;;
7529;SDS011;3806;52.270;10.544;2023-04-15T12:53:13;25.75;;;13.35;;
7529;SDS011;3806;52.270;10.544;2023-04-15T12:55:38;26.90;;;14.05;;
7529;SDS011;3806;52.270;10.544;2023-04-15T12:58:04;28.45;;;14.02;;
7529;SDS011;3806;52.270;10.544;2023-04-15T13:00:29;33.30;;;14.43;;
7529;SDS011;3806;52.270;10.544;2023-04-15T13:02:58;28.45;;;14.20;;
7529;SDS011;3806;52.270;10.544;2023-04-15T13:05:23;28.05;;;13.38;;
7529;SDS011;3806;52.270;10.544;2023-04-15T13:07:49;31.02;;;15.13;;
7529;SDS011;3806;52.270;10.544;2023-04-15T13:10:15;28.95;;;12.90;;
7529;SDS011;3806;52.270;10.544;2023-04-15T13:12:40;24.17;;;13.55;;
7529;SDS011;3806;52.270;10.544;2023-04-15T13:15:06;30.90;;;15.02;;
7529;SDS011;3806;52.270;10.544;2023-04-15T13:17:34;26.85;;;13.75;;
7529;SDS011;3806;52.270;10.544;2023-04-15T13:20:00;35.67;;;14.23;;
7529;SDS011;3806;52.270;10.544;2023-04-15T13:22:26;25.77;;;13.38;;
7529;SDS011;3806;52.270;10.544;2023-04-15T13:24:51;25.15;;;14.10;;
7529;SDS011;3806;52.270;10.544;2023-04-15T13:27:17;27.65;;;14.25;;
7529;SDS011;3806;52.270;10.544;2023-04-15T13:29:42;28.60;;;14.23;;
7529;SDS011;3806;52.270;10.544;2023-04-15T13:32:08;24.25;;;13.00;;
7529;SDS011;3806;52.270;10.544;2023-04-15T13:34:33;29.50;;;14.20;;
7529;SDS011;3806;52.270;10.544;2023-04-15T13:37:04;28.83;;;13.85;;
7529;SDS011;3806;52.270;10.544;2023-04-15T13:39:30;31.90;;;14.40;;
7529;SDS011;3806;52.270;10.544;2023-04-15T13:41:56;26.40;;;13.38;;
7529;SDS011;3806;52.270;10.544;2023-04-15T13:44:21;28.02;;;13.75;;
7529;SDS011;3806;52.270;10.544;2023-04-15T13:46:47;25.95;;;14.13;;
7529;SDS011;3806;52.270;10.544;2023-04-15T13:49:12;23.42;;;13.40;;
7529;SDS011;3806;52.270;10.544;2023-04-15T13:51:38;26.13;;;12.95;;
7529;SDS011;3806;52.270;10.544;2023-04-15T13:54:04;22.67;;;13.27;;
7529;SDS011;3806;52.270;10.544;2023-04-15T13:56:30;25.10;;;13.50;;
7529;SDS011;3806;52.270;10.544;2023-04-15T13:58:55;22.60;;;13.05;;
7529;SDS011;3806;52.270;10.544;2023-04-15T14:01:23;27.80;;;13.32;;
7529;SDS011;3806;52.270;10.544;2023-04-15T14:03:49;22.77;;;13.70;;
7529;SDS011;3806;52.270;10.544;2023-04-15T14:06:15;22.73;;;13.57;;
7529;SDS011;3806;52.270;10.544;2023-04-15T14:08:40;25.75;;;13.15;;
7529;SDS011;3806;52.270;10.544;2023-04-15T14:11:06;25.10;;;13.88;;
7529;SDS011;3806;52.270;10.544;2023-04-15T14:13:31;23.67;;;13.50;;
7529;SDS011;3806;52.270;10.544;2023-04-15T14:15:57;25.75;;;13.52;;
7529;SDS011;3806;52.270;10.544;2023-04-15T14:18:23;21.38;;;13.90;;
7529;SDS011;3806;52.270;10.544;2023-04-15T14:20:48;21.08;;;12.25;;
7529;SDS011;3806;52.270;10.544;2023-04-15T14:23:14;27.60;;;13.82;;
7529;SDS011;3806;52.270;10.544;2023-04-15T14:25:39;23.35;;;14.68;;
7529;SDS011;3806;52.270;10.544;2023-04-15T14:28:08;23.77;;;14.30;;
7529;SDS011;3806;52.270;10.544;2023-04-15T14:30:36;25.10;;;14.88;;
7529;SDS011;3806;52.270;10.544;2023-04-15T14:33:01;25.83;;;14.35;;
7529;SDS011;3806;52.270;10.544;2023-04-15T14:35:27;25.50;;;14.82;;
7529;SDS011;3806;52.270;10.544;2023-04-15T14:37:53;25.10;;;13.82;;
7529;SDS011;3806;52.270;10.544;2023-04-15T14:40:19;21.15;;;12.77;;
7529;SDS011;3806;52.270;10.544;2023-04-15T14:42:45;23.15;;;14.20;;
7529;SDS011;3806;52.270;10.544;2023-04-15T14:45:11;26.45;;;15.57;;
7529;SDS011;3806;52.270;10.544;2023-04-15T14:47:36;27.38;;;13.77;;
7529;SDS011;3806;52.270;10.544;2023-04-15T14:50:02;24.45;;;14.00;;
7529;SDS011;3806;52.270;10.544;2023-04-15T14:52:29;24.63;;;14.93;;
7529;SDS011;3806;52.270;10.544;2023-04-15T14:55:02;28.08;;;14.73;;
7529;SDS011;3806;52.270;10.544;2023-04-15T14:57:37;26.37;;;14.40;;
7529;SDS011;3806;52.270;10.544;2023-04-15T15:00:04;26.25;;;14.35;;
7529;SDS011;3806;52.270;10.544;2023-04-15T15:02:31;20.83;;;12.98;;